createdAt,value
2016-08-05T00:00:00.095Z,965.52
2016-08-05T00:01:00.095Z,965.57
2016-08-05T00:02:00.091Z,965.58
2016-08-05T00:03:00.095Z,965.6
2016-08-05T00:04:00.091Z,965.62
2016-08-05T00:05:00.096Z,965.61
2016-08-05T00:06:00.095Z,965.65
2016-08-05T00:07:00.101Z,965.66
2016-08-05T00:08:00.095Z,965.63
2016-08-05T00:09:00.095Z,965.64
2016-08-05T00:11:00.103Z,965.61
2016-08-05T00:12:00.103Z,965.64
2016-08-05T00:13:00.103Z,965.6
2016-08-05T00:14:00.104Z,965.61
2016-08-05T00:15:00.100Z,965.64
2016-08-05T00:16:00.103Z,965.66
2016-08-05T00:17:00.108Z,965.65
2016-08-05T00:18:00.107Z,965.62
2016-08-05T00:19:00.107Z,965.59
2016-08-05T00:20:00.107Z,965.55
2016-08-05T00:21:00.107Z,965.58
2016-08-05T00:22:00.111Z,965.52
2016-08-05T00:23:00.111Z,965.54
2016-08-05T00:24:00.112Z,965.54
2016-08-05T00:25:00.112Z,965.56
2016-08-05T00:26:00.117Z,965.55
2016-08-05T00:27:00.116Z,965.59
2016-08-05T00:28:00.116Z,965.57
2016-08-05T00:29:00.119Z,965.58
2016-08-05T00:30:00.116Z,965.59
2016-08-05T00:31:00.113Z,965.56
2016-08-05T00:32:00.116Z,965.54
2016-08-05T00:33:00.117Z,965.52
2016-08-05T00:34:00.120Z,965.53
2016-08-05T00:35:00.117Z,965.53
2016-08-05T00:36:00.117Z,965.48
2016-08-05T00:37:00.122Z,965.5
2016-08-05T00:38:00.120Z,965.43
2016-08-05T00:39:00.124Z,965.48
2016-08-05T00:40:00.120Z,965.44
2016-08-05T00:41:00.124Z,965.47
2016-08-05T00:42:00.121Z,965.47
2016-08-05T00:43:00.125Z,965.51
2016-08-05T00:44:00.125Z,965.49
2016-08-05T00:45:00.124Z,965.5
2016-08-05T00:46:00.128Z,965.55
2016-08-05T00:47:00.124Z,965.59
2016-08-05T00:48:00.140Z,965.62
2016-08-05T00:49:00.129Z,965.64
2016-08-05T00:50:00.129Z,965.65
2016-08-05T00:51:00.132Z,965.68
2016-08-05T00:52:00.133Z,965.7
2016-08-05T00:53:00.133Z,965.7
2016-08-05T00:54:00.137Z,965.66
2016-08-05T00:55:00.136Z,965.62
2016-08-05T00:56:00.136Z,965.54
2016-08-05T00:57:00.136Z,965.55
2016-08-05T00:58:00.137Z,965.5
2016-08-05T00:59:00.133Z,965.48
2016-08-05T01:00:00.133Z,965.48
2016-08-05T01:01:00.137Z,965.45
2016-08-05T01:02:00.137Z,965.46
2016-08-05T01:03:00.137Z,965.44
2016-08-05T01:04:00.137Z,965.4
2016-08-05T01:05:00.141Z,965.4
2016-08-05T01:06:00.141Z,965.39
2016-08-05T01:07:00.141Z,965.4
2016-08-05T01:08:00.145Z,965.41
2016-08-05T01:09:00.145Z,965.43
2016-08-05T01:10:00.144Z,965.44
2016-08-05T01:11:00.144Z,965.45
2016-08-05T01:12:00.141Z,965.46
2016-08-05T01:13:00.149Z,965.44
2016-08-05T01:14:00.145Z,965.44
2016-08-05T01:15:00.151Z,965.46
2016-08-05T01:16:00.146Z,965.44
2016-08-05T01:17:00.145Z,965.41
2016-08-05T01:18:00.149Z,965.36
2016-08-05T01:19:00.153Z,965.38
2016-08-05T01:20:00.149Z,965.32
2016-08-05T01:21:00.153Z,965.32
2016-08-05T01:22:00.148Z,965.31
2016-08-05T01:23:00.150Z,965.26
2016-08-05T01:24:00.150Z,965.31
2016-08-05T01:25:00.149Z,965.31
2016-08-05T01:26:00.153Z,965.31
2016-08-05T01:27:00.157Z,965.29
2016-08-05T01:28:00.153Z,965.25
2016-08-05T01:29:00.156Z,965.21
2016-08-05T01:30:00.160Z,965.16
2016-08-05T01:31:00.152Z,965.14
2016-08-05T01:32:00.153Z,965.11
2016-08-05T01:33:00.158Z,965.12
2016-08-05T01:34:00.157Z,965.11
2016-08-05T01:35:00.161Z,965.12
2016-08-05T01:36:00.161Z,965.13
2016-08-05T01:37:00.161Z,965.12
2016-08-05T01:38:00.161Z,965.13
2016-08-05T01:39:00.166Z,965.14
2016-08-05T01:40:00.170Z,965.15
2016-08-05T01:41:00.162Z,965.22
2016-08-05T01:42:00.168Z,965.24
2016-08-05T01:43:00.162Z,965.22
2016-08-05T01:44:00.166Z,965.23
2016-08-05T01:45:00.169Z,965.23
2016-08-05T01:46:00.170Z,965.23
2016-08-05T01:47:00.170Z,965.26
2016-08-05T01:48:00.166Z,965.25
2016-08-05T01:49:00.166Z,965.25
2016-08-05T01:50:00.165Z,965.25
2016-08-05T01:51:00.166Z,965.21
2016-08-05T01:52:00.180Z,965.18
2016-08-05T01:53:00.175Z,965.15
2016-08-05T01:54:00.174Z,965.14
2016-08-05T01:55:00.170Z,965.13
2016-08-05T01:56:00.170Z,965.11
2016-08-05T01:57:00.170Z,965.1
2016-08-05T01:58:00.174Z,965.08
2016-08-05T01:59:00.179Z,965.07
2016-08-05T02:00:00.179Z,965.05
2016-08-05T02:01:00.179Z,965.05
2016-08-05T02:02:00.180Z,964.98
2016-08-05T02:03:00.182Z,964.94
2016-08-05T02:04:00.175Z,964.93
2016-08-05T02:05:00.178Z,964.91
2016-08-05T02:06:00.178Z,964.88
2016-08-05T02:07:00.183Z,964.88
2016-08-05T02:08:00.182Z,964.87
2016-08-05T02:09:00.179Z,964.89
2016-08-05T02:10:00.179Z,964.89
2016-08-05T02:11:00.183Z,964.9
2016-08-05T02:12:00.183Z,964.91
2016-08-05T02:13:00.183Z,964.9
2016-08-05T02:14:00.191Z,964.92
2016-08-05T02:15:00.183Z,964.96
2016-08-05T02:16:00.183Z,965
2016-08-05T02:17:00.183Z,965.04
2016-08-05T02:18:00.191Z,965.06
2016-08-05T02:19:00.191Z,965.06
2016-08-05T02:20:00.188Z,965.09
2016-08-05T02:21:00.190Z,965.1
2016-08-05T02:22:00.187Z,965.09
2016-08-05T02:23:00.187Z,965.07
2016-08-05T02:24:00.192Z,965.03
2016-08-05T02:25:00.195Z,965.03
2016-08-05T02:26:00.195Z,965.08
2016-08-05T02:27:00.195Z,965.01
2016-08-05T02:28:00.191Z,965
2016-08-05T02:29:00.191Z,964.99
2016-08-05T02:30:00.195Z,965.02
2016-08-05T02:31:00.196Z,965.05
2016-08-05T02:32:00.195Z,965.05
2016-08-05T02:33:00.199Z,965.04
2016-08-05T02:34:00.195Z,965.07
2016-08-05T02:35:00.196Z,965.06
2016-08-05T02:36:00.199Z,965.07
2016-08-05T02:37:00.200Z,965.05
2016-08-05T02:38:00.200Z,965.03
2016-08-05T02:39:00.196Z,965.02
2016-08-05T02:40:00.201Z,965.02
2016-08-05T02:41:00.199Z,964.99
2016-08-05T02:42:00.199Z,965.05
2016-08-05T02:43:00.204Z,965.05
2016-08-05T02:44:00.203Z,965.04
2016-08-05T02:45:00.200Z,965.06
2016-08-05T02:46:00.200Z,965.05
2016-08-05T02:47:00.204Z,965.04
2016-08-05T02:48:00.205Z,965.02
2016-08-05T02:49:00.209Z,965
2016-08-05T02:50:00.207Z,964.99
2016-08-05T02:51:00.204Z,964.98
2016-08-05T02:52:00.205Z,964.97
2016-08-05T02:53:00.205Z,964.99
2016-08-05T02:54:00.209Z,964.99
2016-08-05T02:55:00.211Z,964.98
2016-08-05T02:56:00.212Z,964.96
2016-08-05T02:57:00.211Z,964.98
2016-08-05T02:58:00.208Z,964.94
2016-08-05T02:59:00.208Z,964.97
2016-08-05T03:00:00.207Z,964.94
2016-08-05T03:01:00.216Z,964.97
2016-08-05T03:02:00.213Z,964.96
2016-08-05T03:03:00.216Z,964.92
2016-08-05T03:04:00.212Z,964.95
2016-08-05T03:05:00.213Z,964.94
2016-08-05T03:06:00.217Z,964.98
2016-08-05T03:07:00.215Z,964.99
2016-08-05T03:08:00.212Z,965.02
2016-08-05T03:09:00.217Z,965
2016-08-05T03:10:00.217Z,965.01
2016-08-05T03:11:00.225Z,965.04
2016-08-05T03:12:00.221Z,965.1
2016-08-05T03:13:00.221Z,965.12
2016-08-05T03:14:00.217Z,965.14
2016-08-05T03:15:00.217Z,965.18
2016-08-05T03:16:00.220Z,965.18
2016-08-05T03:17:00.221Z,965.21
2016-08-05T03:18:00.224Z,965.2
2016-08-05T03:19:00.224Z,965.23
2016-08-05T03:20:00.225Z,965.23
2016-08-05T03:21:00.221Z,965.28
2016-08-05T03:22:00.222Z,965.21
2016-08-05T03:23:00.233Z,965.22
2016-08-05T03:24:00.230Z,965.26
2016-08-05T03:25:00.226Z,965.21
2016-08-05T03:26:00.226Z,965.27
2016-08-05T03:27:00.230Z,965.26
2016-08-05T03:28:00.229Z,965.28
2016-08-05T03:29:00.229Z,965.23
2016-08-05T03:30:00.241Z,965.28
2016-08-05T03:31:00.230Z,965.24
2016-08-05T03:32:00.230Z,965.23
2016-08-05T03:33:00.229Z,965.26
2016-08-05T03:34:00.234Z,965.27
2016-08-05T03:35:00.234Z,965.27
2016-08-05T03:36:00.229Z,965.24
2016-08-05T03:37:00.230Z,965.27
2016-08-05T03:38:00.238Z,965.27
2016-08-05T03:39:00.235Z,965.27
2016-08-05T03:40:00.239Z,965.27
2016-08-05T03:41:00.242Z,965.32
2016-08-05T03:42:00.234Z,965.31
2016-08-05T03:43:00.234Z,965.33
2016-08-05T03:44:00.238Z,965.35
2016-08-05T03:45:00.242Z,965.37
2016-08-05T03:46:00.243Z,965.35
2016-08-05T03:47:00.242Z,965.42
2016-08-05T03:48:00.239Z,965.39
2016-08-05T03:49:00.238Z,965.42
2016-08-05T03:50:00.243Z,965.58
2016-08-05T03:51:00.247Z,965.58
2016-08-05T03:52:00.246Z,965.52
2016-08-05T03:53:00.243Z,965.57
2016-08-05T03:54:00.243Z,965.56
2016-08-05T03:55:00.243Z,965.59
2016-08-05T03:56:00.247Z,965.55
2016-08-05T03:57:00.246Z,965.57
2016-08-05T03:58:00.243Z,965.65
2016-08-05T03:59:00.247Z,965.56
2016-08-05T04:00:00.246Z,965.56
2016-08-05T04:01:00.250Z,965.55
2016-08-05T04:02:00.250Z,965.46
2016-08-05T04:03:00.247Z,965.51
2016-08-05T04:04:00.247Z,965.61
2016-08-05T04:05:00.252Z,965.54
2016-08-05T04:06:00.255Z,965.62
2016-08-05T04:07:00.255Z,965.54
2016-08-05T04:08:00.255Z,965.57
2016-08-05T04:09:00.253Z,965.53
2016-08-05T04:10:00.251Z,965.58
2016-08-05T04:11:00.255Z,965.54
2016-08-05T04:12:00.259Z,965.57
2016-08-05T04:13:00.252Z,965.55
2016-08-05T04:14:00.256Z,965.54
2016-08-05T04:15:00.256Z,965.59
2016-08-05T04:16:00.259Z,965.52
2016-08-05T04:17:00.259Z,965.6
2016-08-05T04:18:00.255Z,965.53
2016-08-05T04:19:00.256Z,965.54
2016-08-05T04:20:00.259Z,965.59
2016-08-05T04:21:00.263Z,965.62
2016-08-05T04:22:00.261Z,965.65
2016-08-05T04:23:00.260Z,965.65
2016-08-05T04:24:00.264Z,965.71
2016-08-05T04:25:00.264Z,965.71
2016-08-05T04:26:00.265Z,965.73
2016-08-05T04:27:00.260Z,965.7
2016-08-05T04:28:00.264Z,965.69
2016-08-05T04:29:00.268Z,965.69
2016-08-05T04:30:00.267Z,965.68
2016-08-05T04:31:00.268Z,965.73
2016-08-05T04:32:00.264Z,965.68
2016-08-05T04:33:00.267Z,965.68
2016-08-05T04:34:00.267Z,965.73
2016-08-05T04:35:00.263Z,965.72
2016-08-05T04:36:00.264Z,965.71
2016-08-05T04:37:00.267Z,965.73
2016-08-05T04:38:00.271Z,965.7
2016-08-05T04:39:00.272Z,965.76
2016-08-05T04:40:00.267Z,965.71
2016-08-05T04:41:00.271Z,965.76
2016-08-05T04:42:00.271Z,965.75
2016-08-05T04:43:00.269Z,965.77
2016-08-05T04:44:00.268Z,965.81
2016-08-05T04:45:00.271Z,965.81
2016-08-05T04:46:00.267Z,965.83
2016-08-05T04:47:00.271Z,965.91
2016-08-05T04:48:00.275Z,965.95
2016-08-05T04:49:00.275Z,965.98
2016-08-05T04:50:00.271Z,965.97
2016-08-05T04:51:00.271Z,966
2016-08-05T04:52:00.275Z,965.98
2016-08-05T04:53:00.271Z,965.98
2016-08-05T04:54:00.272Z,966.06
2016-08-05T04:55:00.279Z,966.07
2016-08-05T04:56:00.279Z,966.09
2016-08-05T04:57:00.276Z,966.13
2016-08-05T04:58:00.276Z,966.14
2016-08-05T04:59:00.279Z,966.13
2016-08-05T05:00:00.276Z,966.18
2016-08-05T05:01:00.275Z,966.19
2016-08-05T05:02:00.279Z,966.24
2016-08-05T05:03:00.275Z,966.26
2016-08-05T05:04:00.276Z,966.24
2016-08-05T05:05:00.280Z,966.24
2016-08-05T05:06:00.281Z,966.27
2016-08-05T05:07:00.279Z,966.3
2016-08-05T05:08:00.283Z,966.36
2016-08-05T05:09:00.284Z,966.36
2016-08-05T05:10:00.285Z,966.4
2016-08-05T05:11:00.283Z,966.39
2016-08-05T05:12:00.284Z,966.45
2016-08-05T05:13:00.280Z,966.47
2016-08-05T05:14:00.284Z,966.45
2016-08-05T05:15:00.283Z,966.47
2016-08-05T05:16:00.285Z,966.48
2016-08-05T05:17:00.288Z,966.53
2016-08-05T05:18:00.284Z,966.54
2016-08-05T05:19:00.283Z,966.51
2016-08-05T05:20:00.284Z,966.58
2016-08-05T05:21:00.288Z,966.65
2016-08-05T05:22:00.285Z,966.68
2016-08-05T05:23:00.291Z,966.66
2016-08-05T05:24:00.292Z,966.65
2016-08-05T05:25:00.287Z,966.7
2016-08-05T05:27:00.289Z,966.74
2016-08-05T05:28:00.289Z,966.78
2016-08-05T05:29:00.292Z,966.8
2016-08-05T05:30:00.291Z,966.8
2016-08-05T05:31:00.288Z,966.88
2016-08-05T05:32:00.296Z,966.9
2016-08-05T05:33:00.288Z,966.96
2016-08-05T05:34:00.293Z,966.95
2016-08-05T05:35:00.296Z,966.98
2016-08-05T05:36:00.293Z,966.99
2016-08-05T05:37:00.297Z,966.94
2016-08-05T05:38:00.297Z,966.95
2016-08-05T05:39:00.294Z,966.99
2016-08-05T05:40:00.293Z,967.01
2016-08-05T05:42:00.602Z,967
2016-08-05T05:43:00.302Z,967.01
2016-08-05T05:44:00.297Z,966.97
2016-08-05T05:45:00.297Z,967.06
2016-08-05T05:46:00.301Z,967.02
2016-08-05T05:47:00.301Z,967.04
2016-08-05T05:48:00.301Z,967.03
2016-08-05T05:49:00.298Z,967.06
2016-08-05T05:50:00.303Z,967.07
2016-08-05T05:51:00.298Z,967.05
2016-08-05T05:52:00.298Z,967.06
2016-08-05T05:53:00.302Z,967.09
2016-08-05T05:54:00.306Z,967.12
2016-08-05T05:55:00.305Z,967.13
2016-08-05T05:57:00.302Z,967.19
2016-08-05T05:58:00.306Z,967.16
2016-08-05T05:59:00.303Z,967.18
2016-08-05T06:00:00.303Z,967.19
2016-08-05T06:01:00.311Z,967.19
2016-08-05T06:02:00.310Z,967.2
2016-08-05T06:03:00.310Z,967.25
2016-08-05T06:04:00.308Z,967.26
2016-08-05T06:05:00.306Z,967.29
2016-08-05T06:06:00.307Z,967.29
2016-08-05T06:07:00.311Z,967.32
2016-08-05T06:08:00.312Z,967.32
2016-08-05T06:09:00.316Z,967.34
2016-08-05T06:10:00.315Z,967.38
2016-08-05T06:11:00.312Z,967.43
2016-08-05T06:12:00.311Z,967.43
2016-08-05T06:13:00.316Z,967.46
2016-08-05T06:14:00.315Z,967.5
2016-08-05T06:15:00.319Z,967.49
2016-08-05T06:16:00.319Z,967.55
2016-08-05T06:17:00.316Z,967.57
2016-08-05T06:18:00.316Z,967.59
2016-08-05T06:19:00.315Z,967.68
2016-08-05T06:20:00.315Z,967.69
2016-08-05T06:21:00.320Z,967.72
2016-08-05T06:22:00.320Z,967.73
2016-08-05T06:23:00.320Z,967.78
2016-08-05T06:24:00.323Z,967.78
2016-08-05T06:25:00.321Z,967.84
2016-08-05T06:26:00.320Z,967.87
2016-08-05T06:27:00.320Z,967.87
2016-08-05T06:28:00.319Z,967.89
2016-08-05T06:29:00.328Z,967.99
2016-08-05T06:30:00.323Z,967.97
2016-08-05T06:31:00.323Z,968
2016-08-05T06:32:00.329Z,967.99
2016-08-05T06:33:00.324Z,968
2016-08-05T06:34:00.327Z,968.03
2016-08-05T06:35:00.327Z,968.08
2016-08-05T06:36:00.332Z,968.14
2016-08-05T06:37:00.332Z,968.17
2016-08-05T06:38:00.328Z,968.22
2016-08-05T06:39:00.332Z,968.25
2016-08-05T06:40:00.327Z,968.26
2016-08-05T06:41:00.332Z,968.3
2016-08-05T06:42:00.334Z,968.32
2016-08-05T06:43:00.333Z,968.36
2016-08-05T06:44:00.337Z,968.33
2016-08-05T06:45:00.336Z,968.38
2016-08-05T06:46:00.341Z,968.42
2016-08-05T06:47:00.336Z,968.42
2016-08-05T06:48:00.340Z,968.52
2016-08-05T06:49:00.337Z,968.54
2016-08-05T06:50:00.337Z,968.58
2016-08-05T06:51:00.341Z,968.61
2016-08-05T06:52:00.341Z,968.63
2016-08-05T06:53:00.340Z,968.64
2016-08-05T06:54:00.341Z,968.64
2016-08-05T06:55:00.341Z,968.61
2016-08-05T06:56:00.340Z,968.63
2016-08-05T06:57:00.344Z,968.68
2016-08-05T06:58:00.351Z,968.64
2016-08-05T06:59:00.341Z,968.62
2016-08-05T07:00:00.348Z,968.61
2016-08-05T07:01:00.344Z,968.64
2016-08-05T07:02:00.350Z,968.63
2016-08-05T07:03:00.348Z,968.67
2016-08-05T07:04:00.345Z,968.7
2016-08-05T07:05:00.349Z,968.71
2016-08-05T07:06:00.348Z,968.75
2016-08-05T07:07:00.348Z,968.8
2016-08-05T07:08:00.350Z,968.84
2016-08-05T07:09:00.354Z,968.87
2016-08-05T07:10:00.350Z,968.87
2016-08-05T07:11:00.349Z,968.92
2016-08-05T07:12:00.353Z,968.87
2016-08-05T07:13:00.353Z,968.92
2016-08-05T07:14:00.349Z,968.94
2016-08-05T07:15:00.354Z,968.94
2016-08-05T07:16:00.349Z,968.95
2016-08-05T07:17:00.349Z,968.96
2016-08-05T07:18:00.354Z,968.98
2016-08-05T07:19:00.352Z,968.94
2016-08-05T07:20:00.355Z,969
2016-08-05T07:21:00.358Z,968.99
2016-08-05T07:22:00.353Z,969.01
2016-08-05T07:23:00.353Z,969.01
2016-08-05T07:24:00.354Z,969.02
2016-08-05T07:25:00.354Z,969.02
2016-08-05T07:26:00.357Z,969.03
2016-08-05T07:27:00.357Z,969.01
2016-08-05T07:28:00.357Z,969.02
2016-08-05T07:29:00.361Z,969.03
2016-08-05T07:30:00.354Z,969.05
2016-08-05T07:31:00.362Z,969.02
2016-08-05T07:32:00.362Z,969.01
2016-08-05T07:33:00.361Z,969
2016-08-05T07:34:00.361Z,969.03
2016-08-05T07:35:00.358Z,969
2016-08-05T07:36:00.358Z,969.03
2016-08-05T07:37:00.361Z,969.01
2016-08-05T07:38:00.358Z,969.02
2016-08-05T07:39:00.366Z,968.98
2016-08-05T07:40:00.361Z,968.98
2016-08-05T07:41:00.361Z,968.99
2016-08-05T07:42:00.366Z,968.96
2016-08-05T07:43:00.362Z,968.93
2016-08-05T07:44:00.362Z,968.9
2016-08-05T07:45:00.366Z,968.92
2016-08-05T07:46:00.363Z,968.93
2016-08-05T07:47:00.367Z,968.92
2016-08-05T07:48:00.367Z,968.9
2016-08-05T07:49:00.367Z,968.93
2016-08-05T07:50:00.366Z,968.94
2016-08-05T07:51:00.367Z,968.92
2016-08-05T07:52:00.367Z,968.95
2016-08-05T07:53:00.362Z,968.91
2016-08-05T07:54:00.367Z,968.94
2016-08-05T07:55:00.370Z,968.92
2016-08-05T07:56:00.367Z,968.91
2016-08-05T07:57:00.366Z,968.97
2016-08-05T07:58:00.370Z,969.02
2016-08-05T07:59:00.368Z,969.04
2016-08-05T08:00:00.370Z,969.06
2016-08-05T08:01:00.367Z,969.12
2016-08-05T08:02:00.371Z,969.1
2016-08-05T08:03:00.371Z,969.11
2016-08-05T08:04:00.371Z,969.13
2016-08-05T08:05:00.375Z,969.15
2016-08-05T08:06:00.376Z,969.14
2016-08-05T08:07:00.372Z,969.16
2016-08-05T08:08:00.371Z,969.15
2016-08-05T08:09:00.375Z,969.14
2016-08-05T08:10:00.374Z,969.18
2016-08-05T08:11:00.373Z,969.19
2016-08-05T08:12:00.375Z,969.16
2016-08-05T08:13:00.371Z,969.19
2016-08-05T08:14:00.370Z,969.15
2016-08-05T08:15:00.376Z,969.2
2016-08-05T08:16:00.379Z,969.21
2016-08-05T08:17:00.379Z,969.2
2016-08-05T08:18:00.376Z,969.22
2016-08-05T08:19:00.379Z,969.26
2016-08-05T08:20:00.379Z,969.28
2016-08-05T08:21:00.380Z,969.25
2016-08-05T08:22:00.376Z,969.28
2016-08-05T08:23:00.380Z,969.29
2016-08-05T08:24:00.380Z,969.28
2016-08-05T08:25:00.383Z,969.33
2016-08-05T08:26:00.387Z,969.36
2016-08-05T08:27:00.381Z,969.35
2016-08-05T08:28:00.380Z,969.38
2016-08-05T08:29:00.380Z,969.39
2016-08-05T08:30:00.384Z,969.38
2016-08-05T08:31:00.384Z,969.4
2016-08-05T08:32:00.387Z,969.41
2016-08-05T08:33:00.388Z,969.42
2016-08-05T08:34:00.388Z,969.46
2016-08-05T08:35:00.389Z,969.47
2016-08-05T08:36:00.389Z,969.51
2016-08-05T08:37:00.388Z,969.52
2016-08-05T08:38:00.398Z,969.6
2016-08-05T08:39:00.389Z,969.63
2016-08-05T08:40:00.388Z,969.62
2016-08-05T08:41:00.392Z,969.62
2016-08-05T08:42:00.397Z,969.68
2016-08-05T08:43:00.392Z,969.69
2016-08-05T08:44:00.396Z,969.68
2016-08-05T08:45:00.392Z,969.74
2016-08-05T08:46:00.396Z,969.76
2016-08-05T08:47:00.395Z,969.77
2016-08-05T08:48:00.400Z,969.78
2016-08-05T08:49:00.400Z,969.79
2016-08-05T08:50:00.399Z,969.8
2016-08-05T08:51:00.401Z,969.81
2016-08-05T08:52:00.400Z,969.85
2016-08-05T08:53:00.404Z,969.89
2016-08-05T08:54:00.404Z,969.88
2016-08-05T08:55:00.405Z,969.97
2016-08-05T08:56:00.404Z,969.96
2016-08-05T08:57:00.404Z,970.01
2016-08-05T08:58:00.404Z,969.99
2016-08-05T08:59:00.409Z,970.04
2016-08-05T09:00:00.408Z,970.04
2016-08-05T09:01:00.409Z,970.01
2016-08-05T09:02:00.408Z,970.02
2016-08-05T09:03:00.409Z,970.02
2016-08-05T09:04:00.413Z,969.97
2016-08-05T09:05:00.413Z,970.03
2016-08-05T09:06:00.413Z,970.05
2016-08-05T09:07:00.410Z,970.06
2016-08-05T09:08:00.413Z,970.1
2016-08-05T09:09:00.410Z,970.14
2016-08-05T09:10:00.417Z,970.16
2016-08-05T09:11:00.418Z,970.22
2016-08-05T09:12:00.417Z,970.22
2016-08-05T09:13:00.417Z,970.3
2016-08-05T09:14:00.415Z,970.27
2016-08-05T09:15:00.422Z,970.3
2016-08-05T09:16:00.421Z,970.25
2016-08-05T09:17:00.422Z,970.27
2016-08-05T09:18:00.418Z,970.24
2016-08-05T09:19:00.421Z,970.23
2016-08-05T09:20:00.419Z,970.28
2016-08-05T09:21:00.426Z,970.31
2016-08-05T09:22:00.422Z,970.3
2016-08-05T09:23:00.426Z,970.29
2016-08-05T09:24:00.423Z,970.31
2016-08-05T09:25:00.430Z,970.34
2016-08-05T09:26:00.430Z,970.33
2016-08-05T09:27:00.429Z,970.38
2016-08-05T09:28:00.426Z,970.33
2016-08-05T09:29:00.430Z,970.33
2016-08-05T09:30:00.431Z,970.34
2016-08-05T09:31:00.434Z,970.37
2016-08-05T09:32:00.431Z,970.42
2016-08-05T09:33:00.431Z,970.43
2016-08-05T09:34:00.434Z,970.44
2016-08-05T09:35:00.431Z,970.47
2016-08-05T09:36:00.438Z,970.48
2016-08-05T09:37:00.435Z,970.48
2016-08-05T09:38:00.438Z,970.49
2016-08-05T09:39:00.435Z,970.48
2016-08-05T09:40:00.439Z,970.47
2016-08-05T09:41:00.441Z,970.51
2016-08-05T09:42:00.441Z,970.5
2016-08-05T09:43:00.442Z,970.54
2016-08-05T09:44:00.443Z,970.56
2016-08-05T09:45:00.442Z,970.53
2016-08-05T09:46:00.442Z,970.59
2016-08-05T09:47:00.446Z,970.56
2016-08-05T09:48:00.446Z,970.5
2016-08-05T09:49:00.446Z,970.54
2016-08-05T09:50:00.445Z,970.53
2016-08-05T09:51:00.446Z,970.54
2016-08-05T09:52:00.450Z,970.54
2016-08-05T09:53:00.454Z,970.55
2016-08-05T09:54:00.451Z,970.52
2016-08-05T09:55:00.450Z,970.5
2016-08-05T09:56:00.453Z,970.47
2016-08-05T09:57:00.453Z,970.49
2016-08-05T09:58:00.455Z,970.48
2016-08-05T09:59:00.455Z,970.47
2016-08-05T10:00:00.462Z,970.46
2016-08-05T10:01:00.458Z,970.46
2016-08-05T10:02:00.458Z,970.48
2016-08-05T10:03:00.462Z,970.47
2016-08-05T10:04:00.463Z,970.49
2016-08-05T10:05:00.463Z,970.5
2016-08-05T10:06:00.466Z,970.5
2016-08-05T10:07:00.462Z,970.57
2016-08-05T10:08:00.470Z,970.53
2016-08-05T10:09:00.471Z,970.53
2016-08-05T10:10:00.467Z,970.5
2016-08-05T10:11:00.469Z,970.55
2016-08-05T10:12:00.470Z,970.51
2016-08-05T10:13:00.474Z,970.58
2016-08-05T10:14:00.475Z,970.57
2016-08-05T10:15:00.478Z,970.64
2016-08-05T10:16:00.479Z,970.62
2016-08-05T10:17:00.475Z,970.74
2016-08-05T10:18:00.483Z,970.78
2016-08-05T10:19:00.479Z,970.79
2016-08-05T10:20:00.482Z,970.83
2016-08-05T10:21:00.490Z,970.82
2016-08-05T10:22:00.487Z,970.84
2016-08-05T10:23:00.483Z,970.86
2016-08-05T10:24:00.487Z,970.89
2016-08-05T10:25:00.487Z,970.88
2016-08-05T10:26:00.487Z,970.89
2016-08-05T10:27:00.487Z,970.92
2016-08-05T10:28:00.491Z,970.94
2016-08-05T10:29:00.496Z,970.94
2016-08-05T10:30:00.491Z,970.93
2016-08-05T10:31:00.499Z,970.93
2016-08-05T10:32:00.495Z,970.95
2016-08-05T10:33:00.499Z,970.99
2016-08-05T10:34:00.499Z,970.93
2016-08-05T10:35:00.502Z,970.88
2016-08-05T10:36:00.503Z,970.91
2016-08-05T10:37:00.511Z,970.95
2016-08-05T10:38:00.503Z,970.95
2016-08-05T10:39:00.503Z,970.96
2016-08-05T10:40:00.504Z,970.96
2016-08-05T10:41:00.511Z,970.96
2016-08-05T10:42:00.507Z,970.97
2016-08-05T10:43:00.511Z,970.96
2016-08-05T10:44:00.515Z,970.99
2016-08-05T10:45:00.512Z,970.94
2016-08-05T10:46:00.516Z,970.97
2016-08-05T10:47:00.515Z,970.95
2016-08-05T10:48:00.518Z,970.97
2016-08-05T10:49:00.516Z,970.99
2016-08-05T10:50:00.524Z,970.98
2016-08-05T10:51:00.520Z,970.99
2016-08-05T10:52:00.523Z,970.97
2016-08-05T10:53:00.527Z,971
2016-08-05T10:54:00.532Z,970.99
2016-08-05T10:55:00.524Z,970.95
2016-08-05T10:56:00.528Z,970.98
2016-08-05T10:57:00.529Z,970.95
2016-08-05T10:58:00.531Z,970.93
2016-08-05T10:59:00.528Z,970.95
2016-08-05T11:00:00.532Z,970.94
2016-08-05T11:01:00.532Z,970.98
2016-08-05T11:02:00.536Z,971.01
2016-08-05T11:03:00.536Z,971
2016-08-05T11:04:00.540Z,971
2016-08-05T11:05:00.537Z,971.03
2016-08-05T11:06:00.544Z,971.05
2016-08-05T11:07:00.541Z,971.05
2016-08-05T11:08:00.545Z,971.02
2016-08-05T11:09:00.548Z,971.03
2016-08-05T11:10:00.544Z,971
2016-08-05T11:11:00.548Z,970.97
2016-08-05T11:12:00.553Z,970.99
2016-08-05T11:13:00.553Z,970.97
2016-08-05T11:14:00.549Z,970.96
2016-08-05T11:15:00.557Z,970.99
2016-08-05T11:16:00.553Z,970.93
2016-08-05T11:17:00.553Z,970.97
2016-08-05T11:18:00.560Z,970.98
2016-08-05T11:19:00.557Z,971
2016-08-05T11:20:00.557Z,970.99
2016-08-05T11:21:00.556Z,971.01
2016-08-05T11:22:00.561Z,971.02
2016-08-05T11:23:00.565Z,971.02
2016-08-05T11:24:00.561Z,971.04
2016-08-05T11:25:00.565Z,971.05
2016-08-05T11:26:00.569Z,971.05
2016-08-05T11:27:00.573Z,971.08
2016-08-05T11:28:00.573Z,971.09
2016-08-05T11:29:00.577Z,971.13
2016-08-05T11:30:00.576Z,971.12
2016-08-05T11:31:00.572Z,971.16
2016-08-05T11:32:00.573Z,971.14
2016-08-05T11:33:00.581Z,971.16
2016-08-05T11:34:00.576Z,971.17
2016-08-05T11:35:00.577Z,971.19
2016-08-05T11:36:00.585Z,971.17
2016-08-05T11:37:00.581Z,971.19
2016-08-05T11:38:00.584Z,971.19
2016-08-05T11:39:00.585Z,971.21
2016-08-05T11:40:00.589Z,971.19
2016-08-05T11:41:00.589Z,971.26
2016-08-05T11:43:00.592Z,971.24
2016-08-05T11:44:00.594Z,971.26
2016-08-05T11:45:00.594Z,971.28
2016-08-05T11:46:00.598Z,971.28
2016-08-05T11:47:00.597Z,971.29
2016-08-05T11:48:00.601Z,971.33
2016-08-05T11:49:00.604Z,971.39
2016-08-05T11:50:00.605Z,971.39
2016-08-05T11:51:00.605Z,971.36
2016-08-05T11:52:00.605Z,971.39
2016-08-05T11:53:00.607Z,971.4
2016-08-05T11:54:00.614Z,971.41
2016-08-05T11:55:00.607Z,971.41
2016-08-05T11:56:00.613Z,971.4
2016-08-05T11:58:00.611Z,971.43
2016-08-05T11:59:00.614Z,971.41
2016-08-05T12:00:00.615Z,971.38
2016-08-05T12:01:00.613Z,971.39
2016-08-05T12:02:00.615Z,971.38
2016-08-05T12:03:00.623Z,971.36
2016-08-05T12:04:00.619Z,971.38
2016-08-05T12:05:00.618Z,971.35
2016-08-05T12:06:00.620Z,971.35
2016-08-05T12:07:00.626Z,971.37
2016-08-05T12:08:00.623Z,971.36
2016-08-05T12:09:00.626Z,971.39
2016-08-05T12:10:00.626Z,971.42
2016-08-05T12:11:00.627Z,971.42
2016-08-05T12:13:00.631Z,971.43
2016-08-05T12:14:00.627Z,971.43
2016-08-05T12:15:00.630Z,971.45
2016-08-05T12:16:00.631Z,971.45
2016-08-05T12:17:00.634Z,971.48
2016-08-05T12:18:00.638Z,971.47
2016-08-05T12:19:00.638Z,971.49
2016-08-05T12:20:00.646Z,971.53
2016-08-05T12:21:00.635Z,971.53
2016-08-05T12:22:00.643Z,971.55
2016-08-05T12:23:00.643Z,971.56
2016-08-05T12:24:00.642Z,971.56
2016-08-05T12:25:00.647Z,971.59
2016-08-05T12:26:00.647Z,971.56
2016-08-05T12:27:00.643Z,971.56
2016-08-05T12:28:00.651Z,971.57
2016-08-05T12:29:00.648Z,971.56
2016-08-05T12:30:00.652Z,971.61
2016-08-05T12:31:00.648Z,971.58
2016-08-05T12:32:00.652Z,971.61
2016-08-05T12:33:00.655Z,971.57
2016-08-05T12:34:00.651Z,971.55
2016-08-05T12:35:00.656Z,971.6
2016-08-05T12:36:00.656Z,971.59
2016-08-05T12:37:00.655Z,971.56
2016-08-05T12:38:00.663Z,971.56